Carlton, MN (55718)

6:00 PM CDT on July 28, 2015 (GMT -0500)
Cloquet Carlton County | | Change Station
CLOSE
Current Station
Airport
Location: Cloquet,
Elevation: 1280 ft
Nearby Weather Stations

Elev 1280 ft 46.70 °N, 92.50 °W | Updated 5 minutes ago

Mostly Cloudy
Mostly Cloudy
81 °F
Feels Like 83 °F
N
9
Wind Variable Wind from SSW

Today
High -- | Low -- °F
--% Chance of Precip.
Yesterday
High -- | Low -- °F
Precip. -- in
5:45 AM 8:47 PM
Waxing Gibbous, 92% visible
Pressure 29.78 in
Visibility 10.0 miles
Clouds Scattered Clouds 3400 ft
Scattered Clouds 4000 ft
Mostly Cloudy 5500 ft
Heat Index 83 °F
Dew Point 66 °F
Humidity 61%
Rainfall 0.07 in
Snow Depth Not available.
UV 1 out of 12
Pollen 1.60 out of 12
Air Quality Not available.
Flu Activity Not available.
METAR KCOQ 282255Z AUTO 20008KT 10SM SCT034 SCT040 BKN055 27/19 A2978 RMK AO2

More Conditions Fewer Conditions

Pressure 29.78 in
Visibility 10.0 miles
Clouds Scattered Clouds 3400 ft
Scattered Clouds 4000 ft
Mostly Cloudy 5500 ft
Heat Index 83 °F
Dew Point 66 °F
Humidity 61%
Rainfall 0.07 in
Snow Depth Not available.
UV 1 out of 12
Pollen 1.60 out of 12
Air Quality Not available.
Flu Activity Not available.
METAR KCOQ 282255Z AUTO 20008KT 10SM SCT034 SCT040 BKN055 27/19 A2978 RMK AO2

More Conditions Fewer Conditions

10-Day Weather Forecast

×

Almanac

Astronomy

Jul. 28, 2015 Rise Set
Actual Time
Civil Twilight
Nautical Twilight
Astronomical Twilight
Moon
Length of Visible Light
Length of Day
Tomorrow will be .
, % of the Moon is Illuminated

Today's Extremes

State Highs State Lows

Community

WunderPhotos

Upload Photos

1,841,963 photos uploaded!

WunderBlogs® & News

Nearby

Air Quality

  Air Quality AQ Index Pollutant
Not available.

Snow Depth

Station Depth Elevation

Earthquake Activity

City Distance Mag. Time & Date
Minimum magnitude displayed is 2.5.

Coastal Water Temperatures

Place Temperature

Stations

Nearby Weather Stations

Station Location Temp. Windchill Dew Point Humidity Wind Precip. Elev Updated Type